Hauptseite
METAR-TAF:

METAR-TAF

Flughäfen :

Xi’an, China

Flughafen Xi’an-Xianyang

Breite: 34-26N, Länge: 108-45E, Höhe: 479 m

Beobachtung

Neuester Wetterbericht von vor 49 Minuten, um 15:00 UTC
Windstille
Temperatur 25°C
Luftfeuchtigkeit 57%
Luftdruck 1007 hPa
Sichtweite 10 km oder mehr
keine Wolken unter 1500 m und keine Kumulonimbus oder Gewitterwolken

METAR: ZLXY 271500Z 00000MPS CAVOK 25/16 Q1007 NOSIG

Zeit: 23:49 (15:49 UTC)

Prognose

Neuester Wetterbericht von vor 6 Stunden und 35 Minuten, um 09:14 UTC
Gültige Prognose vom 27 um 12 UTC bis 28 um 12 UTC
Wind 8 kt aus Ost
Sichtweite: 6000 m

TAF: ZLXY 270914Z 2712/2812 08004MPS 6000 NSC TX37/2808Z TN21/2721Z

Wetterbeobachtungen und Prognosen von mehr als 4000 Flughäfen (METAR und TAF Bericht).

Die verfügbaren Stationen werden durch gelbe und rote Markierungen auf der Karte dargestellt.

Führen Sie die Maus auf sie, um den Namen der Station zu sehen.

Darauf klicken, um die Beobachtung von Wetterbeobachtungen und Prognosen zu sehen.

Um die Karte zu ändern : klicken Sie auf den grünen Tasten mit einem schwarzen Kreuz Zum Vergrößern, auf den grünen Button mit einem Gedankenstrich zu verkleinern, oder auf die grünen Pfeile für benachbarte Karten.


METAR-TAF: